sensor_id;sensor_type;location;lat;lon;timestamp;pressure;altitude;pressure_sealevel;temperature;humidity
44988;BME280;35735;52.226;21.254;2022-11-12T00:04:46;101720.03;;;11.04;100.00
44988;BME280;35735;52.226;21.254;2022-11-12T00:09:47;101722.88;;;11.10;100.00
44988;BME280;35735;52.226;21.254;2022-11-12T00:14:47;101719.31;;;11.14;100.00
44988;BME280;35735;52.226;21.254;2022-11-12T00:19:48;101722.03;;;11.14;100.00
44988;BME280;35735;52.226;21.254;2022-11-12T00:24:48;101729.13;;;11.09;100.00
44988;BME280;35735;52.226;21.254;2022-11-12T00:29:49;101730.09;;;11.12;100.00
44988;BME280;35735;52.226;21.254;2022-11-12T00:34:49;101729.13;;;11.09;100.00
44988;BME280;35735;52.226;21.254;2022-11-12T00:39:50;101740.81;;;11.06;100.00
44988;BME280;35735;52.226;21.254;2022-11-12T00:44:50;101739.00;;;11.05;100.00
44988;BME280;35735;52.226;21.254;2022-11-12T00:49:51;101738.16;;;11.08;100.00
44988;BME280;35735;52.226;21.254;2022-11-12T00:54:51;101732.69;;;11.05;100.00
44988;BME280;35735;52.226;21.254;2022-11-12T00:59:52;101722.69;;;11.01;100.00
44988;BME280;35735;52.226;21.254;2022-11-12T01:04:52;101724.47;;;11.00;100.00
44988;BME280;35735;52.226;21.254;2022-11-12T01:09:53;101724.50;;;11.02;100.00
44988;BME280;35735;52.226;21.254;2022-11-12T01:14:54;101720.09;;;11.07;100.00
44988;BME280;35735;52.226;21.254;2022-11-12T01:19:54;101722.81;;;11.07;100.00
44988;BME280;35735;52.226;21.254;2022-11-12T01:24:55;101728.13;;;11.02;100.00
44988;BME280;35735;52.226;21.254;2022-11-12T01:29:55;101718.28;;;11.06;100.00
44988;BME280;35735;52.226;21.254;2022-11-12T01:34:56;101722.94;;;11.13;100.00
44988;BME280;35735;52.226;21.254;2022-11-12T01:39:56;101720.31;;;11.18;100.00
44988;BME280;35735;52.226;21.254;2022-11-12T01:44:57;101725.72;;;11.18;100.00
44988;BME280;35735;52.226;21.254;2022-11-12T01:50:13;101729.31;;;11.18;100.00
44988;BME280;35735;52.226;21.254;2022-11-12T01:55:25;101727.50;;;11.17;100.00
44988;BME280;35735;52.226;21.254;2022-11-12T02:00:28;101736.50;;;11.16;100.00
44988;BME280;35735;52.226;21.254;2022-11-12T02:05:29;101731.94;;;11.13;100.00
44988;BME280;35735;52.226;21.254;2022-11-12T02:10:30;101727.44;;;11.14;100.00
44988;BME280;35735;52.226;21.254;2022-11-12T02:15:31;101722.00;;;11.11;100.00
44988;BME280;35735;52.226;21.254;2022-11-12T02:20:36;101726.62;;;11.18;100.00
44988;BME280;35735;52.226;21.254;2022-11-12T02:25:37;101729.44;;;11.24;100.00
44988;BME280;35735;52.226;21.254;2022-11-12T02:30:41;101734.84;;;11.24;100.00
44988;BME280;35735;52.226;21.254;2022-11-12T02:35:44;101723.06;;;11.22;100.00
44988;BME280;35735;52.226;21.254;2022-11-12T02:40:44;101722.28;;;11.26;100.00
44988;BME280;35735;52.226;21.254;2022-11-12T02:45:45;101723.12;;;11.25;100.00
44988;BME280;35735;52.226;21.254;2022-11-12T02:50:46;101740.19;;;11.21;100.00
44988;BME280;35735;52.226;21.254;2022-11-12T02:55:47;101736.31;;;11.07;100.00
44988;BME280;35735;52.226;21.254;2022-11-12T03:00:48;101738.84;;;10.99;100.00
44988;BME280;35735;52.226;21.254;2022-11-12T03:05:59;101737.06;;;10.98;100.00
44988;BME280;35735;52.226;21.254;2022-11-12T03:11:09;101739.72;;;10.97;100.00
44988;BME280;35735;52.226;21.254;2022-11-12T03:16:10;101741.56;;;10.98;100.00
44988;BME280;35735;52.226;21.254;2022-11-12T03:21:11;101747.97;;;11.03;100.00
44988;BME280;35735;52.226;21.254;2022-11-12T03:26:11;101754.22;;;11.02;100.00
44988;BME280;35735;52.226;21.254;2022-11-12T03:31:12;101753.41;;;11.04;100.00
44988;BME280;35735;52.226;21.254;2022-11-12T03:36:12;101755.19;;;11.05;100.00
44988;BME280;35735;52.226;21.254;2022-11-12T03:41:13;101754.16;;;10.99;100.00
44988;BME280;35735;52.226;21.254;2022-11-12T03:46:13;101750.41;;;10.90;100.00
44988;BME280;35735;52.226;21.254;2022-11-12T03:51:14;101761.16;;;10.87;100.00
44988;BME280;35735;52.226;21.254;2022-11-12T03:56:14;101757.62;;;10.91;100.00
44988;BME280;35735;52.226;21.254;2022-11-12T04:01:15;101755.87;;;10.93;100.00
44988;BME280;35735;52.226;21.254;2022-11-12T04:06:15;101752.09;;;10.85;100.00
44988;BME280;35735;52.226;21.254;2022-11-12T04:11:16;101751.00;;;10.75;100.00
44988;BME280;35735;52.226;21.254;2022-11-12T04:16:19;101744.69;;;10.75;100.00
44988;BME280;35735;52.226;21.254;2022-11-12T04:21:23;101753.66;;;10.74;100.00
44988;BME280;35735;52.226;21.254;2022-11-12T04:26:26;101748.22;;;10.71;100.00
44988;BME280;35735;52.226;21.254;2022-11-12T04:31:26;101754.31;;;10.62;100.00
44988;BME280;35735;52.226;21.254;2022-11-12T04:36:27;101748.09;;;10.65;100.00
44988;BME280;35735;52.226;21.254;2022-11-12T04:41:27;101734.56;;;10.63;100.00
44988;BME280;35735;52.226;21.254;2022-11-12T04:46:28;101728.25;;;10.63;100.00
44988;BME280;35735;52.226;21.254;2022-11-12T04:51:28;101740.94;;;10.67;100.00
44988;BME280;35735;52.226;21.254;2022-11-12T04:56:29;101739.09;;;10.66;100.00
44988;BME280;35735;52.226;21.254;2022-11-12T05:01:29;101740.69;;;10.54;100.00
44988;BME280;35735;52.226;21.254;2022-11-12T05:06:30;101741.59;;;10.55;100.00
44988;BME280;35735;52.226;21.254;2022-11-12T05:11:30;101740.75;;;10.57;100.00
44988;BME280;35735;52.226;21.254;2022-11-12T05:16:31;101737.06;;;10.52;100.00
44988;BME280;35735;52.226;21.254;2022-11-12T05:21:32;101745.09;;;10.49;100.00
44988;BME280;35735;52.226;21.254;2022-11-12T05:26:32;101732.63;;;10.56;100.00
44988;BME280;35735;52.226;21.254;2022-11-12T05:31:33;101739.00;;;10.60;100.00
44988;BME280;35735;52.226;21.254;2022-11-12T05:36:33;101731.72;;;10.57;100.00
44988;BME280;35735;52.226;21.254;2022-11-12T05:41:34;101740.00;;;10.65;100.00
44988;BME280;35735;52.226;21.254;2022-11-12T05:46:34;101737.28;;;10.65;100.00
44988;BME280;35735;52.226;21.254;2022-11-12T05:51:35;101748.09;;;10.65;100.00
44988;BME280;35735;52.226;21.254;2022-11-12T05:56:36;101755.25;;;10.63;100.00
44988;BME280;35735;52.226;21.254;2022-11-12T06:01:37;101763.47;;;10.69;100.00
44988;BME280;35735;52.226;21.254;2022-11-12T06:06:40;101763.50;;;10.70;100.00
44988;BME280;35735;52.226;21.254;2022-11-12T06:11:40;101765.97;;;10.58;100.00
44988;BME280;35735;52.226;21.254;2022-11-12T06:16:41;101769.37;;;10.49;100.00
44988;BME280;35735;52.226;21.254;2022-11-12T06:21:41;101774.56;;;10.40;100.00
44988;BME280;35735;52.226;21.254;2022-11-12T06:26:42;101771.50;;;10.25;100.00
44988;BME280;35735;52.226;21.254;2022-11-12T06:31:43;101766.75;;;10.14;100.00
44988;BME280;35735;52.226;21.254;2022-11-12T06:36:43;101773.97;;;10.15;100.00
44988;BME280;35735;52.226;21.254;2022-11-12T06:41:44;101786.53;;;10.15;100.00
44988;BME280;35735;52.226;21.254;2022-11-12T06:46:44;101794.44;;;10.06;100.00
44988;BME280;35735;52.226;21.254;2022-11-12T06:51:45;101784.09;;;9.88;100.00
44988;BME280;35735;52.226;21.254;2022-11-12T06:56:45;101781.97;;;9.74;100.00
44988;BME280;35735;52.226;21.254;2022-11-12T07:01:46;101786.31;;;9.68;100.00
44988;BME280;35735;52.226;21.254;2022-11-12T07:06:46;101797.13;;;9.69;100.00
44988;BME280;35735;52.226;21.254;2022-11-12T07:11:48;101813.06;;;9.60;100.00
44988;BME280;35735;52.226;21.254;2022-11-12T07:16:49;101820.25;;;9.59;100.00
44988;BME280;35735;52.226;21.254;2022-11-12T07:21:49;101822.63;;;9.49;100.00
44988;BME280;35735;52.226;21.254;2022-11-12T07:26:50;101831.44;;;9.41;100.00
44988;BME280;35735;52.226;21.254;2022-11-12T07:31:51;101823.16;;;9.35;100.00
44988;BME280;35735;52.226;21.254;2022-11-12T07:36:51;101817.69;;;9.31;100.00
44988;BME280;35735;52.226;21.254;2022-11-12T07:41:52;101818.50;;;9.28;100.00
44988;BME280;35735;52.226;21.254;2022-11-12T07:46:52;101838.34;;;9.32;100.00
44988;BME280;35735;52.226;21.254;2022-11-12T07:51:53;101839.28;;;9.32;100.00
44988;BME280;35735;52.226;21.254;2022-11-12T07:56:53;101836.22;;;9.20;100.00
44988;BME280;35735;52.226;21.254;2022-11-12T08:01:54;101834.41;;;9.19;100.00
44988;BME280;35735;52.226;21.254;2022-11-12T08:06:54;101841.44;;;9.14;100.00
44988;BME280;35735;52.226;21.254;2022-11-12T08:11:55;101830.75;;;9.17;100.00
44988;BME280;35735;52.226;21.254;2022-11-12T08:16:55;101828.28;;;9.24;100.00
44988;BME280;35735;52.226;21.254;2022-11-12T08:21:56;101831.13;;;9.29;100.00
44988;BME280;35735;52.226;21.254;2022-11-12T08:26:57;101836.59;;;9.32;100.00
44988;BME280;35735;52.226;21.254;2022-11-12T08:31:57;101829.44;;;9.34;100.00
44988;BME280;35735;52.226;21.254;2022-11-12T08:36:58;101830.25;;;9.32;100.00
44988;BME280;35735;52.226;21.254;2022-11-12T08:41:59;101840.31;;;9.37;100.00
44988;BME280;35735;52.226;21.254;2022-11-12T08:46:59;101842.97;;;9.36;100.00
44988;BME280;35735;52.226;21.254;2022-11-12T08:52:00;101836.50;;;9.29;100.00
44988;BME280;35735;52.226;21.254;2022-11-12T08:57:00;101843.69;;;9.30;100.00
44988;BME280;35735;52.226;21.254;2022-11-12T09:02:01;101846.34;;;9.28;100.00
44988;BME280;35735;52.226;21.254;2022-11-12T09:07:01;101849.88;;;9.26;100.00
44988;BME280;35735;52.226;21.254;2022-11-12T09:12:02;101849.97;;;9.29;100.00
44988;BME280;35735;52.226;21.254;2022-11-12T09:17:03;101862.44;;;9.25;100.00
44988;BME280;35735;52.226;21.254;2022-11-12T09:22:03;101865.16;;;9.25;100.00
44988;BME280;35735;52.226;21.254;2022-11-12T09:27:04;101864.34;;;9.30;100.00
44988;BME280;35735;52.226;21.254;2022-11-12T09:32:04;101873.44;;;9.33;100.00
44988;BME280;35735;52.226;21.254;2022-11-12T09:37:05;101868.16;;;9.38;100.00
44988;BME280;35735;52.226;21.254;2022-11-12T09:42:06;101868.22;;;9.39;100.00
44988;BME280;35735;52.226;21.254;2022-11-12T09:47:40;101863.72;;;9.40;100.00
44988;BME280;35735;52.226;21.254;2022-11-12T09:52:55;101869.97;;;9.37;100.00
44988;BME280;35735;52.226;21.254;2022-11-12T09:58:13;101870.34;;;9.51;100.00
44988;BME280;35735;52.226;21.254;2022-11-12T10:09:10;101871.16;;;9.49;100.00
44988;BME280;35735;52.226;21.254;2022-11-12T10:19:49;101873.69;;;9.42;100.00
44988;BME280;35735;52.226;21.254;2022-11-12T10:25:09;101867.47;;;9.45;100.00
44988;BME280;35735;52.226;21.254;2022-11-12T10:30:17;101881.06;;;9.50;100.00
44988;BME280;35735;52.226;21.254;2022-11-12T10:35:21;101881.94;;;9.49;100.00
44988;BME280;35735;52.226;21.254;2022-11-12T10:40:35;101879.28;;;9.50;100.00
44988;BME280;35735;52.226;21.254;2022-11-12T10:45:37;101889.06;;;9.46;100.00
44988;BME280;35735;52.226;21.254;2022-11-12T10:50:41;101880.03;;;9.44;100.00
44988;BME280;35735;52.226;21.254;2022-11-12T10:55:56;101881.88;;;9.45;100.00
44988;BME280;35735;52.226;21.254;2022-11-12T11:01:03;101884.47;;;9.42;100.00
44988;BME280;35735;52.226;21.254;2022-11-12T11:06:18;101885.53;;;9.48;100.00
44988;BME280;35735;52.226;21.254;2022-11-12T11:11:29;101892.72;;;9.49;100.00
44988;BME280;35735;52.226;21.254;2022-11-12T11:16:47;101892.66;;;9.45;100.00
44988;BME280;35735;52.226;21.254;2022-11-12T11:27:03;101880.28;;;9.54;100.00
44988;BME280;35735;52.226;21.254;2022-11-12T11:49:46;101880.41;;;9.58;100.00
44988;BME280;35735;52.226;21.254;2022-11-12T11:55:15;101892.91;;;9.55;100.00
44988;BME280;35735;52.226;21.254;2022-11-12T12:01:14;101902.91;;;9.60;100.00
44988;BME280;35735;52.226;21.254;2022-11-12T12:06:24;101901.22;;;9.62;100.00
44988;BME280;35735;52.226;21.254;2022-11-12T12:11:34;101890.41;;;9.62;100.00
44988;BME280;35735;52.226;21.254;2022-11-12T12:16:58;101882.19;;;9.58;100.00
44988;BME280;35735;52.226;21.254;2022-11-12T12:22:24;101877.72;;;9.58;100.00
44988;BME280;35735;52.226;21.254;2022-11-12T12:27:38;101876.91;;;9.61;100.00
44988;BME280;35735;52.226;21.254;2022-11-12T12:33:06;101879.62;;;9.62;100.00
44988;BME280;35735;52.226;21.254;2022-11-12T12:38:43;101883.31;;;9.66;100.00
44988;BME280;35735;52.226;21.254;2022-11-12T12:43:51;101878.41;;;9.85;100.00
44988;BME280;35735;52.226;21.254;2022-11-12T12:48:54;101889.47;;;9.95;100.00
44988;BME280;35735;52.226;21.254;2022-11-12T12:53:54;101885.34;;;10.10;100.00
44988;BME280;35735;52.226;21.254;2022-11-12T12:58:55;101889.81;;;10.08;100.00
44988;BME280;35735;52.226;21.254;2022-11-12T13:04:04;101881.88;;;10.15;100.00
44988;BME280;35735;52.226;21.254;2022-11-12T13:14:44;101887.25;;;10.12;100.00
44988;BME280;35735;52.226;21.254;2022-11-12T13:45:54;101901.34;;;10.02;100.00
44988;BME280;35735;52.226;21.254;2022-11-12T13:51:00;101899.75;;;10.10;100.00
44988;BME280;35735;52.226;21.254;2022-11-12T13:56:02;101890.03;;;10.17;100.00
44988;BME280;35735;52.226;21.254;2022-11-12T14:01:04;101896.28;;;10.14;100.00
44988;BME280;35735;52.226;21.254;2022-11-12T14:06:26;101891.84;;;10.18;100.00
44988;BME280;35735;52.226;21.254;2022-11-12T14:11:43;101894.53;;;10.16;100.00
44988;BME280;35735;52.226;21.254;2022-11-12T14:17:32;101885.59;;;10.20;100.00
44988;BME280;35735;52.226;21.254;2022-11-12T14:22:42;101887.44;;;10.22;100.00
44988;BME280;35735;52.226;21.254;2022-11-12T14:27:45;101895.28;;;10.11;100.00
44988;BME280;35735;52.226;21.254;2022-11-12T14:32:58;101890.53;;;10.02;100.00
44988;BME280;35735;52.226;21.254;2022-11-12T14:38:09;101888.88;;;10.06;100.00
44988;BME280;35735;52.226;21.254;2022-11-12T14:48:26;101889.94;;;10.14;100.00
44988;BME280;35735;52.226;21.254;2022-11-12T14:53:38;101896.41;;;10.20;100.00
44988;BME280;35735;52.226;21.254;2022-11-12T14:58:41;101885.78;;;10.27;100.00
44988;BME280;35735;52.226;21.254;2022-11-12T15:03:41;101887.63;;;10.28;100.00
44988;BME280;35735;52.226;21.254;2022-11-12T15:08:42;101889.38;;;10.26;100.00
44988;BME280;35735;52.226;21.254;2022-11-12T15:13:43;101894.94;;;10.32;100.00
44988;BME280;35735;52.226;21.254;2022-11-12T15:29:28;101899.25;;;10.27;100.00
44988;BME280;35735;52.226;21.254;2022-11-12T15:34:43;101893.81;;;10.25;100.00
44988;BME280;35735;52.226;21.254;2022-11-12T15:39:50;101904.44;;;10.17;100.00
44988;BME280;35735;52.226;21.254;2022-11-12T15:44:57;101914.38;;;10.20;100.00
44988;BME280;35735;52.226;21.254;2022-11-12T15:49:58;101915.28;;;10.19;100.00
44988;BME280;35735;52.226;21.254;2022-11-12T15:54:59;101909.00;;;10.20;100.00
44988;BME280;35735;52.226;21.254;2022-11-12T16:00:01;101921.66;;;10.23;100.00
44988;BME280;35735;52.226;21.254;2022-11-12T16:05:11;101921.59;;;10.19;100.00
44988;BME280;35735;52.226;21.254;2022-11-12T16:10:14;101923.34;;;10.17;100.00
44988;BME280;35735;52.226;21.254;2022-11-12T16:15:17;101937.78;;;10.19;100.00
44988;BME280;35735;52.226;21.254;2022-11-12T16:20:21;101944.19;;;10.25;100.00
44988;BME280;35735;52.226;21.254;2022-11-12T16:25:31;101943.34;;;10.27;100.00
44988;BME280;35735;52.226;21.254;2022-11-12T16:30:33;101950.50;;;10.25;100.00
44988;BME280;35735;52.226;21.254;2022-11-12T16:35:34;101962.28;;;10.29;100.00
44988;BME280;35735;52.226;21.254;2022-11-12T16:40:35;101957.78;;;10.28;100.00
44988;BME280;35735;52.226;21.254;2022-11-12T16:45:40;101955.94;;;10.27;100.00
44988;BME280;35735;52.226;21.254;2022-11-12T16:50:41;101956.94;;;10.30;100.00
44988;BME280;35735;52.226;21.254;2022-11-12T16:55:42;101952.56;;;10.34;100.00
44988;BME280;35735;52.226;21.254;2022-11-12T17:00:43;101949.16;;;10.41;100.00
44988;BME280;35735;52.226;21.254;2022-11-12T17:05:50;101950.03;;;10.40;100.00
44988;BME280;35735;52.226;21.254;2022-11-12T17:10:50;101956.28;;;10.37;100.00
44988;BME280;35735;52.226;21.254;2022-11-12T17:15:55;101950.91;;;10.39;100.00
44988;BME280;35735;52.226;21.254;2022-11-12T17:20:56;101958.25;;;10.45;100.00
44988;BME280;35735;52.226;21.254;2022-11-12T17:26:12;101943.84;;;10.44;100.00
44988;BME280;35735;52.226;21.254;2022-11-12T17:31:19;101945.50;;;10.39;100.00
44988;BME280;35735;52.226;21.254;2022-11-12T17:36:23;101942.09;;;10.46;100.00
44988;BME280;35735;52.226;21.254;2022-11-12T17:41:26;101934.06;;;10.49;100.00
44988;BME280;35735;52.226;21.254;2022-11-12T17:46:27;101943.03;;;10.48;100.00
44988;BME280;35735;52.226;21.254;2022-11-12T17:51:28;101940.41;;;10.51;100.00
44988;BME280;35735;52.226;21.254;2022-11-12T17:56:28;101932.38;;;10.54;100.00
44988;BME280;35735;52.226;21.254;2022-11-12T18:01:30;101944.03;;;10.53;100.00
44988;BME280;35735;52.226;21.254;2022-11-12T18:06:33;101935.78;;;10.47;100.00
44988;BME280;35735;52.226;21.254;2022-11-12T18:11:41;101939.38;;;10.46;100.00
44988;BME280;35735;52.226;21.254;2022-11-12T18:16:42;101929.44;;;10.45;100.00
44988;BME280;35735;52.226;21.254;2022-11-12T18:21:42;101943.84;;;10.44;100.00
44988;BME280;35735;52.226;21.254;2022-11-12T18:26:43;101947.41;;;10.43;100.00
44988;BME280;35735;52.226;21.254;2022-11-12T18:31:43;101945.50;;;10.39;100.00
44988;BME280;35735;52.226;21.254;2022-11-12T18:36:44;101942.53;;;10.30;100.00
44988;BME280;35735;52.226;21.254;2022-11-12T18:41:45;101938.94;;;10.29;100.00
44988;BME280;35735;52.226;21.254;2022-11-12T18:46:45;101939.63;;;10.22;100.00
44988;BME280;35735;52.226;21.254;2022-11-12T18:51:46;101938.56;;;10.15;100.00
44988;BME280;35735;52.226;21.254;2022-11-12T18:56:46;101947.63;;;10.17;100.00
44988;BME280;35735;52.226;21.254;2022-11-12T19:01:47;101949.38;;;10.17;100.00
44988;BME280;35735;52.226;21.254;2022-11-12T19:06:47;101951.44;;;10.26;100.00
44988;BME280;35735;52.226;21.254;2022-11-12T19:11:48;101946.25;;;10.33;100.00
44988;BME280;35735;52.226;21.254;2022-11-12T19:16:48;101948.91;;;10.32;100.00
44988;BME280;35735;52.226;21.254;2022-11-12T19:21:49;101954.31;;;10.32;100.00
44988;BME280;35735;52.226;21.254;2022-11-12T19:26:49;101949.59;;;10.25;100.00
44988;BME280;35735;52.226;21.254;2022-11-12T19:31:50;101942.31;;;10.22;100.00
44988;BME280;35735;52.226;21.254;2022-11-12T19:36:51;101945.91;;;10.21;100.00
44988;BME280;35735;52.226;21.254;2022-11-12T19:41:51;101941.19;;;10.12;100.00
44988;BME280;35735;52.226;21.254;2022-11-12T19:46:52;101961.03;;;10.14;100.00
44988;BME280;35735;52.226;21.254;2022-11-12T19:51:52;101954.75;;;10.15;100.00
44988;BME280;35735;52.226;21.254;2022-11-12T19:56:53;101958.22;;;10.10;100.00
44988;BME280;35735;52.226;21.254;2022-11-12T20:01:54;101958.25;;;10.11;100.00
44988;BME280;35735;52.226;21.254;2022-11-12T20:06:54;101961.75;;;10.09;100.00
44988;BME280;35735;52.226;21.254;2022-11-12T20:11:55;101971.66;;;10.08;100.00
44988;BME280;35735;52.226;21.254;2022-11-12T20:16:55;101960.78;;;10.05;100.00
44988;BME280;35735;52.226;21.254;2022-11-12T20:21:56;101963.47;;;10.05;100.00
44988;BME280;35735;52.226;21.254;2022-11-12T20:26:56;101973.41;;;10.06;100.00
44988;BME280;35735;52.226;21.254;2022-11-12T20:31:57;101963.38;;;10.02;100.00
44988;BME280;35735;52.226;21.254;2022-11-12T20:36:57;101975.06;;;10.01;100.00
44988;BME280;35735;52.226;21.254;2022-11-12T20:41:58;101971.56;;;10.05;100.00
44988;BME280;35735;52.226;21.254;2022-11-12T20:46:58;101971.44;;;10.00;100.00
44988;BME280;35735;52.226;21.254;2022-11-12T20:51:59;101981.28;;;9.98;100.00
44988;BME280;35735;52.226;21.254;2022-11-12T20:57:00;101975.87;;;9.98;100.00
44988;BME280;35735;52.226;21.254;2022-11-12T21:02:00;101970.44;;;9.97;100.00
44988;BME280;35735;52.226;21.254;2022-11-12T21:07:01;101963.19;;;9.94;100.00
44988;BME280;35735;52.226;21.254;2022-11-12T21:12:01;101962.25;;;9.94;100.00
44988;BME280;35735;52.226;21.254;2022-11-12T21:17:02;101967.47;;;9.86;100.00
44988;BME280;35735;52.226;21.254;2022-11-12T21:22:03;101963.91;;;9.89;100.00
44988;BME280;35735;52.226;21.254;2022-11-12T21:27:03;101965.72;;;9.88;100.00
44988;BME280;35735;52.226;21.254;2022-11-12T21:32:04;101966.75;;;9.93;100.00
44988;BME280;35735;52.226;21.254;2022-11-12T21:37:05;101970.34;;;9.94;100.00
44988;BME280;35735;52.226;21.254;2022-11-12T21:42:05;101966.63;;;9.89;100.00
44988;BME280;35735;52.226;21.254;2022-11-12T21:47:06;101969.09;;;9.79;100.00
44988;BME280;35735;52.226;21.254;2022-11-12T21:52:06;101977.16;;;9.79;100.00
44988;BME280;35735;52.226;21.254;2022-11-12T21:57:07;101981.75;;;9.83;100.00
44988;BME280;35735;52.226;21.254;2022-11-12T22:02:09;101970.88;;;9.79;100.00
44988;BME280;35735;52.226;21.254;2022-11-12T22:07:10;101980.72;;;9.78;100.00
44988;BME280;35735;52.226;21.254;2022-11-12T22:12:11;101980.00;;;9.84;100.00
44988;BME280;35735;52.226;21.254;2022-11-12T22:17:11;101976.63;;;9.93;100.00
44988;BME280;35735;52.226;21.254;2022-11-12T22:22:12;101973.06;;;9.94;100.00
44988;BME280;35735;52.226;21.254;2022-11-12T22:27:12;101973.06;;;9.94;100.00
44988;BME280;35735;52.226;21.254;2022-11-12T22:32:13;101971.34;;;9.96;100.00
44988;BME280;35735;52.226;21.254;2022-11-12T22:37:13;101974.72;;;9.89;100.00
44988;BME280;35735;52.226;21.254;2022-11-12T22:42:14;101969.50;;;9.95;100.00
44988;BME280;35735;52.226;21.254;2022-11-12T22:47:14;101977.59;;;9.95;100.00
44988;BME280;35735;52.226;21.254;2022-11-12T22:52:15;101972.28;;;9.98;100.00
44988;BME280;35735;52.226;21.254;2022-11-12T22:57:15;101969.53;;;9.96;100.00
44988;BME280;35735;52.226;21.254;2022-11-12T23:02:16;101965.19;;;10.01;100.00
44988;BME280;35735;52.226;21.254;2022-11-12T23:07:17;101966.88;;;9.98;100.00
44988;BME280;35735;52.226;21.254;2022-11-12T23:12:17;101965.28;;;10.05;100.00
44988;BME280;35735;52.226;21.254;2022-11-12T23:17:18;101967.91;;;10.03;100.00
44988;BME280;35735;52.226;21.254;2022-11-12T23:22:18;101970.66;;;10.05;100.00
44988;BME280;35735;52.226;21.254;2022-11-12T23:27:19;101967.84;;;10.00;100.00
44988;BME280;35735;52.226;21.254;2022-11-12T23:32:19;101967.78;;;9.98;100.00
44988;BME280;35735;52.226;21.254;2022-11-12T23:37:20;101958.78;;;9.98;100.00
44988;BME280;35735;52.226;21.254;2022-11-12T23:42:20;101962.44;;;10.00;100.00
44988;BME280;35735;52.226;21.254;2022-11-12T23:47:21;101956.97;;;9.97;100.00
44988;BME280;35735;52.226;21.254;2022-11-12T23:52:22;101961.34;;;9.93;100.00
44988;BME280;35735;52.226;21.254;2022-11-12T23:57:22;101953.22;;;9.92;100.00
